createdAt,value
2019-06-07T00:00:32.166Z,22.50
2019-06-07T00:02:40.353Z,22.50
2019-06-07T00:05:09.992Z,22.40
2019-06-07T00:07:39.589Z,22.40
2019-06-07T00:10:09.379Z,22.40
2019-06-07T00:12:39.420Z,22.40
2019-06-07T00:15:11.706Z,22.50
2019-06-07T00:17:38.833Z,22.50
2019-06-07T00:20:11.077Z,22.50
2019-06-07T00:22:38.539Z,22.60
2019-06-07T00:25:13.376Z,22.60
2019-06-07T00:27:40.858Z,22.50
2019-06-07T00:32:41.615Z,22.50
2019-06-07T00:35:11.888Z,22.50
2019-06-07T00:37:41.286Z,22.50
2019-06-07T00:40:16.351Z,22.50
2019-06-07T00:42:40.931Z,22.50
2019-06-07T00:45:11.229Z,22.50
2019-06-07T00:47:40.728Z,22.40
2019-06-07T00:50:11.108Z,22.40
2019-06-07T00:53:13.811Z,22.30
2019-06-07T00:55:14.295Z,22.30
2019-06-07T00:57:42.729Z,22.30
2019-06-07T01:00:14.782Z,22.30
2019-06-07T01:02:43.186Z,22.30
2019-06-07T01:05:15.902Z,22.20
2019-06-07T01:07:42.513Z,22.20
2019-06-07T01:10:13.835Z,22.20
2019-06-07T01:12:43.302Z,22.20
2019-06-07T01:15:15.797Z,22.20
2019-06-07T01:18:32.406Z,22.10
2019-06-07T01:20:14.147Z,22.10
2019-06-07T01:22:43.051Z,22.10
2019-06-07T01:25:11.897Z,22.00
2019-06-07T01:27:40.628Z,22.00
2019-06-07T01:30:16.091Z,22.00
2019-06-07T01:32:44.912Z,22.00
2019-06-07T01:35:13.727Z,22.00
2019-06-07T01:37:42.477Z,21.90
2019-06-07T01:40:13.299Z,21.90
2019-06-07T01:42:42.060Z,21.90
2019-06-07T01:45:11.552Z,21.90
2019-06-07T01:47:40.403Z,21.80
2019-06-07T01:50:10.496Z,21.80
2019-06-07T01:52:39.241Z,21.80
2019-06-07T01:55:08.401Z,21.80
2019-06-07T01:57:47.705Z,21.90
2019-06-07T02:00:08.300Z,21.80
2019-06-07T02:02:37.067Z,21.80
2019-06-07T02:05:07.239Z,21.80
2019-06-07T02:07:36.281Z,21.80
2019-06-07T02:10:06.987Z,21.80
2019-06-07T02:12:42.824Z,21.80
2019-06-07T02:15:10.196Z,21.80
2019-06-07T02:17:39.296Z,21.80
2019-06-07T02:20:09.449Z,21.80
2019-06-07T02:22:38.304Z,21.80
2019-06-07T02:27:38.692Z,21.70
2019-06-07T02:30:36.713Z,21.70
2019-06-07T02:32:38.712Z,21.70
2019-06-07T02:35:07.466Z,21.60
2019-06-07T02:37:37.200Z,21.60
2019-06-07T02:40:09.924Z,21.60
2019-06-07T02:42:42.735Z,21.60
2019-06-07T02:45:10.798Z,21.50
2019-06-07T02:47:40.309Z,21.50
2019-06-07T02:50:12.536Z,21.50
2019-06-07T02:52:42.159Z,21.50
2019-06-07T02:55:12.068Z,21.50
2019-06-07T02:57:42.124Z,21.50
2019-06-07T03:02:44.491Z,21.50
2019-06-07T03:05:13.388Z,21.50
2019-06-07T03:07:45.101Z,21.50
2019-06-07T03:10:14.714Z,21.50
2019-06-07T03:12:47.335Z,21.50
2019-06-07T03:15:32.608Z,21.50
2019-06-07T03:17:50.648Z,21.50
2019-06-07T03:20:21.023Z,21.50
2019-06-07T03:22:51.445Z,21.50
2019-06-07T03:25:20.194Z,21.50
2019-06-07T03:27:50.609Z,21.50
2019-06-07T03:30:41.567Z,21.50
2019-06-07T03:32:50.153Z,21.50
2019-06-07T03:35:20.494Z,21.50
2019-06-07T03:37:49.290Z,21.50
2019-06-07T03:40:18.080Z,21.40
2019-06-07T03:42:46.803Z,21.50
2019-06-07T03:45:15.565Z,21.40
2019-06-07T03:47:44.382Z,21.50
2019-06-07T03:50:13.120Z,21.50
2019-06-07T03:52:42.048Z,21.50
2019-06-07T03:55:11.152Z,21.60
2019-06-07T03:58:29.091Z,21.50
2019-06-07T04:00:10.563Z,21.60
2019-06-07T04:02:41.878Z,21.70
2019-06-07T04:05:09.709Z,21.70
2019-06-07T04:07:43.737Z,21.70
2019-06-07T04:10:08.980Z,21.80
2019-06-07T04:12:41.189Z,21.80
2019-06-07T04:15:09.278Z,21.90
2019-06-07T04:17:44.540Z,21.90
2019-06-07T04:20:09.231Z,21.90
2019-06-07T04:22:42.049Z,22.00
2019-06-07T04:25:09.797Z,22.00
2019-06-07T04:27:40.795Z,22.00
2019-06-07T04:30:09.971Z,22.00
2019-06-07T04:32:40.490Z,22.10
2019-06-07T04:35:09.113Z,22.10
2019-06-07T04:37:41.227Z,22.20
2019-06-07T04:40:08.948Z,22.20
2019-06-07T04:42:44.275Z,22.30
2019-06-07T04:45:32.491Z,22.30
2019-06-07T04:47:42.422Z,22.40
2019-06-07T04:50:10.790Z,22.40
2019-06-07T04:52:42.714Z,22.50
2019-06-07T04:55:10.115Z,22.60
2019-06-07T04:57:40.377Z,22.70
2019-06-07T05:00:46.253Z,22.70
2019-06-07T05:02:42.894Z,22.80
2019-06-07T05:05:10.392Z,22.80
2019-06-07T05:07:42.993Z,22.80
2019-06-07T05:10:09.522Z,22.90
2019-06-07T05:12:41.565Z,22.90
2019-06-07T05:15:08.750Z,23.00
2019-06-07T05:17:42.521Z,23.00
2019-06-07T05:20:08.795Z,23.10
2019-06-07T05:22:40.659Z,23.10
2019-06-07T05:25:07.924Z,23.10
2019-06-07T05:27:39.215Z,23.10
2019-06-07T05:30:24.198Z,23.20
2019-06-07T05:32:43.759Z,23.20
2019-06-07T05:35:11.390Z,23.30
2019-06-07T05:37:43.789Z,23.40
2019-06-07T05:40:10.914Z,23.40
2019-06-07T05:42:43.319Z,23.40
2019-06-07T05:45:10.193Z,23.50
2019-06-07T05:47:44.413Z,23.60
2019-06-07T05:50:35.921Z,23.60
2019-06-07T05:52:44.345Z,23.70
2019-06-07T05:55:10.561Z,23.80
2019-06-07T05:57:43.478Z,23.80
2019-06-07T06:00:09.799Z,23.90
2019-06-07T06:02:57.652Z,23.90
2019-06-07T06:05:09.151Z,24.00
2019-06-07T06:07:39.508Z,24.00
2019-06-07T06:10:09.061Z,24.10
2019-06-07T06:12:42.709Z,24.10
2019-06-07T06:15:08.780Z,24.10
2019-06-07T06:17:40.919Z,24.20
2019-06-07T06:20:09.076Z,24.30
2019-06-07T06:22:43.484Z,24.30
2019-06-07T06:28:05.885Z,24.40
2019-06-07T06:30:14.350Z,24.50
2019-06-07T06:32:52.671Z,24.60
2019-06-07T06:35:13.688Z,24.60
2019-06-07T06:37:46.372Z,24.70
2019-06-07T06:40:14.858Z,24.80
2019-06-07T06:42:45.535Z,24.80
2019-06-07T06:45:14.922Z,24.90
2019-06-07T06:47:47.231Z,25.00
2019-06-07T06:50:15.893Z,25.10
2019-06-07T06:52:47.978Z,25.10
2019-06-07T06:55:16.557Z,25.20
2019-06-07T06:57:45.848Z,25.20
2019-06-07T07:00:16.022Z,25.30
2019-06-07T07:03:32.570Z,25.40
2019-06-07T07:05:15.567Z,25.50
2019-06-07T07:07:45.445Z,25.50
2019-06-07T07:10:16.488Z,25.60
2019-06-07T07:12:45.533Z,25.60
2019-06-07T07:15:18.219Z,25.70
2019-06-07T07:17:58.563Z,25.70
2019-06-07T07:20:17.575Z,25.80
2019-06-07T07:22:48.565Z,25.80
2019-06-07T07:25:17.777Z,25.90
2019-06-07T07:27:47.157Z,25.90
2019-06-07T07:30:37.184Z,26.00
2019-06-07T07:32:52.851Z,26.00
2019-06-07T07:35:20.640Z,26.10
2019-06-07T07:37:57.028Z,26.10
2019-06-07T07:40:56.342Z,26.20
2019-06-07T07:42:53.320Z,26.30
2019-06-07T07:45:20.667Z,26.30
2019-06-07T07:48:10.599Z,26.40
2019-06-07T07:50:19.915Z,26.40
2019-06-07T07:52:54.686Z,26.40
2019-06-07T07:55:19.181Z,26.40
2019-06-07T07:57:52.347Z,26.50
2019-06-07T08:02:53.780Z,26.50
2019-06-07T08:05:33.646Z,26.60
2019-06-07T08:07:56.492Z,26.50
2019-06-07T08:10:22.837Z,26.60
2019-06-07T08:13:16.247Z,26.60
2019-06-07T08:15:22.059Z,26.60
2019-06-07T08:17:56.040Z,26.60
2019-06-07T08:20:21.380Z,26.70
2019-06-07T08:22:50.125Z,26.70
2019-06-07T08:25:19.254Z,26.80
2019-06-07T08:27:49.409Z,26.80
2019-06-07T08:30:48.145Z,26.90
2019-06-07T08:32:52.632Z,26.90
2019-06-07T08:36:03.254Z,26.90
2019-06-07T08:40:21.446Z,27.00
2019-06-07T08:43:10.742Z,27.20
2019-06-07T08:45:21.081Z,27.20
2019-06-07T08:47:51.657Z,27.30
2019-06-07T08:50:20.977Z,27.40
2019-06-07T08:52:54.731Z,27.40
2019-06-07T08:55:20.492Z,27.40
2019-06-07T08:57:49.327Z,27.50
2019-06-07T09:00:43.107Z,27.60
2019-06-07T09:02:49.159Z,27.60
2019-06-07T09:05:18.118Z,27.60
2019-06-07T09:07:46.879Z,27.50
2019-06-07T09:10:17.757Z,27.60
2019-06-07T09:12:46.615Z,27.50
2019-06-07T09:15:23.641Z,27.70
2019-06-07T09:18:30.380Z,27.70
2019-06-07T09:20:35.553Z,27.80
2019-06-07T09:22:47.959Z,27.90
2019-06-07T09:25:21.311Z,27.90
2019-06-07T09:27:48.334Z,27.90
2019-06-07T09:30:20.158Z,28.00
2019-06-07T09:32:49.009Z,28.00
2019-06-07T09:35:18.040Z,28.10
2019-06-07T09:40:27.370Z,28.10
2019-06-07T09:43:38.365Z,28.20
2019-06-07T09:45:21.292Z,28.30
2019-06-07T09:47:50.138Z,28.40
2019-06-07T09:50:18.926Z,28.30
2019-06-07T09:52:58.660Z,28.40
2019-06-07T09:55:24.318Z,28.50
2019-06-07T09:57:51.324Z,28.50
2019-06-07T10:00:40.165Z,28.60
2019-06-07T10:02:50.665Z,28.60
2019-06-07T10:05:19.462Z,28.70
2019-06-07T10:08:02.437Z,28.80
2019-06-07T10:12:49.202Z,28.90
2019-06-07T10:15:18.140Z,28.90
2019-06-07T10:17:48.424Z,29.00
2019-06-07T10:20:17.413Z,29.00
2019-06-07T10:22:46.159Z,29.10
2019-06-07T10:25:15.005Z,29.10
2019-06-07T10:27:43.834Z,29.20
2019-06-07T10:30:13.757Z,29.30
2019-06-07T10:32:42.593Z,29.30
2019-06-07T10:35:15.366Z,29.30
2019-06-07T10:37:41.810Z,29.30
2019-06-07T10:40:11.357Z,29.40
2019-06-07T10:42:40.251Z,29.40
2019-06-07T10:45:10.309Z,29.50
2019-06-07T10:47:40.127Z,29.40
2019-06-07T10:50:10.384Z,29.60
2019-06-07T10:52:39.280Z,29.60
2019-06-07T10:55:08.698Z,29.60
2019-06-07T10:57:37.642Z,29.60
2019-06-07T11:00:09.411Z,29.70
2019-06-07T11:02:38.546Z,29.80
2019-06-07T11:05:10.113Z,29.90
2019-06-07T11:07:39.159Z,29.90
2019-06-07T11:10:15.008Z,30.00
2019-06-07T11:12:39.409Z,30.00
2019-06-07T11:15:08.964Z,30.10
2019-06-07T11:17:37.771Z,30.20
2019-06-07T11:20:08.356Z,30.20
2019-06-07T11:22:37.291Z,30.30
2019-06-07T11:25:07.759Z,30.40
2019-06-07T11:27:36.916Z,30.40
2019-06-07T11:30:08.375Z,30.50
2019-06-07T11:32:39.066Z,30.60
2019-06-07T11:35:10.633Z,30.70
2019-06-07T11:37:39.658Z,30.80
2019-06-07T11:40:27.747Z,30.90
2019-06-07T11:42:42.320Z,30.90
2019-06-07T11:45:12.822Z,30.90
2019-06-07T11:47:41.611Z,31.00
2019-06-07T11:50:11.771Z,31.10
2019-06-07T11:52:40.758Z,31.10
2019-06-07T11:55:11.561Z,31.00
2019-06-07T11:57:40.393Z,30.90
2019-06-07T12:00:13.600Z,30.90
2019-06-07T12:02:42.722Z,30.80
2019-06-07T12:05:16.114Z,30.90
2019-06-07T12:07:42.199Z,31.00
2019-06-07T12:10:12.560Z,31.20
2019-06-07T12:12:41.519Z,31.30
2019-06-07T12:15:11.104Z,31.10
2019-06-07T12:17:39.865Z,31.20
2019-06-07T12:20:10.806Z,31.30
2019-06-07T12:22:39.680Z,31.30
2019-06-07T12:25:10.197Z,31.50
2019-06-07T12:27:39.275Z,31.60
2019-06-07T12:30:15.449Z,31.50
2019-06-07T12:32:39.710Z,31.60
2019-06-07T12:35:09.370Z,31.60
2019-06-07T12:37:44.282Z,31.80
2019-06-07T12:40:09.336Z,31.90
2019-06-07T12:42:38.509Z,31.80
2019-06-07T12:45:08.666Z,31.90
2019-06-07T12:47:37.414Z,32.10
2019-06-07T12:50:08.352Z,32.40
2019-06-07T12:52:37.273Z,32.40
2019-06-07T12:55:07.514Z,32.40
2019-06-07T12:57:36.184Z,32.70
2019-06-07T13:00:09.950Z,33.10
2019-06-07T13:02:38.768Z,33.30
2019-06-07T13:05:09.169Z,33.60
2019-06-07T13:07:37.980Z,33.90
2019-06-07T13:10:07.862Z,34.10
2019-06-07T13:12:36.678Z,34.00
2019-06-07T13:15:07.029Z,34.00
2019-06-07T13:17:36.295Z,34.00
2019-06-07T13:20:07.241Z,34.00
2019-06-07T13:22:35.993Z,34.00
2019-06-07T13:25:08.039Z,34.30
2019-06-07T13:27:36.773Z,34.80
2019-06-07T13:30:10.329Z,34.90
2019-06-07T13:32:37.916Z,34.80
2019-06-07T13:35:12.416Z,34.80
2019-06-07T13:37:43.572Z,35.00
2019-06-07T13:40:19.255Z,35.40
2019-06-07T13:42:52.097Z,35.70
2019-06-07T13:45:22.266Z,35.70
2019-06-07T13:47:51.204Z,35.60
2019-06-07T13:50:21.566Z,35.70
2019-06-07T13:52:50.459Z,35.70
2019-06-07T13:55:19.946Z,35.60
2019-06-07T13:57:48.854Z,35.50
2019-06-07T14:00:18.942Z,35.50
2019-06-07T14:02:48.159Z,35.30
2019-06-07T14:05:17.047Z,35.00
2019-06-07T14:07:45.776Z,35.20
2019-06-07T14:10:14.615Z,35.50
2019-06-07T14:12:44.825Z,36.20
2019-06-07T14:15:13.959Z,36.50
2019-06-07T14:17:42.712Z,37.10
2019-06-07T14:20:11.858Z,37.40
2019-06-07T14:22:40.711Z,37.10
2019-06-07T14:25:10.964Z,37.50
2019-06-07T14:27:39.749Z,37.50
2019-06-07T14:30:10.918Z,37.40
2019-06-07T14:32:39.673Z,37.80
2019-06-07T14:35:08.815Z,38.60
2019-06-07T14:37:37.639Z,39.20
2019-06-07T14:40:08.756Z,38.80
2019-06-07T14:42:37.634Z,38.70
2019-06-07T14:45:07.598Z,38.00
2019-06-07T14:47:36.376Z,38.60
2019-06-07T14:50:07.698Z,39.00
2019-06-07T14:52:36.432Z,38.50
2019-06-07T14:55:07.659Z,37.90
2019-06-07T14:57:37.339Z,37.30
2019-06-07T15:00:11.696Z,36.80
2019-06-07T15:02:40.926Z,36.60
2019-06-07T15:05:10.247Z,36.40
2019-06-07T15:07:58.309Z,36.10
2019-06-07T15:10:27.035Z,35.80
2019-06-07T15:12:55.857Z,35.40
2019-06-07T15:15:24.642Z,35.20
2019-06-07T15:17:53.824Z,35.00
2019-06-07T15:20:22.584Z,34.90
2019-06-07T15:22:51.442Z,34.70
2019-06-07T15:25:20.286Z,34.50
2019-06-07T15:27:49.014Z,34.30
2019-06-07T15:30:19.603Z,34.20
2019-06-07T15:32:48.343Z,34.00
2019-06-07T15:35:17.202Z,33.90
2019-06-07T15:37:45.975Z,33.90
2019-06-07T15:40:15.135Z,34.00
2019-06-07T15:42:52.520Z,34.40
2019-06-07T15:45:14.984Z,34.50
2019-06-07T15:47:43.766Z,34.40
2019-06-07T15:50:12.840Z,34.30
2019-06-07T15:52:43.345Z,34.10
2019-06-07T15:55:12.659Z,34.10
2019-06-07T15:57:42.263Z,34.30
2019-06-07T16:00:19.194Z,34.50
2019-06-07T16:02:47.927Z,34.70
2019-06-07T16:05:17.975Z,34.50
2019-06-07T16:07:46.771Z,34.20
2019-06-07T16:10:16.734Z,33.90
2019-06-07T16:12:59.711Z,33.70
2019-06-07T16:15:16.690Z,33.50
2019-06-07T16:17:45.529Z,33.30
2019-06-07T16:20:15.572Z,33.10
2019-06-07T16:22:44.372Z,32.90
2019-06-07T16:25:13.405Z,32.70
2019-06-07T16:27:42.756Z,32.50
2019-06-07T16:30:12.804Z,32.40
2019-06-07T16:32:42.023Z,32.20
2019-06-07T16:35:12.341Z,32.10
2019-06-07T16:37:42.782Z,31.90
2019-06-07T16:40:13.765Z,31.70
2019-06-07T16:42:43.033Z,31.50
2019-06-07T16:45:15.013Z,31.40
2019-06-07T16:47:47.398Z,31.30
2019-06-07T16:50:14.678Z,31.20
2019-06-07T16:52:44.229Z,31.00
2019-06-07T16:55:14.815Z,30.90
2019-06-07T16:57:45.044Z,30.80
2019-06-07T17:00:15.119Z,30.70
2019-06-07T17:02:45.023Z,30.60
2019-06-07T17:05:14.360Z,30.50
2019-06-07T17:07:44.682Z,30.50
2019-06-07T17:10:13.833Z,30.40
2019-06-07T17:12:44.868Z,30.30
2019-06-07T17:15:14.658Z,30.20
2019-06-07T17:17:45.172Z,30.10
2019-06-07T17:20:15.857Z,30.10
2019-06-07T17:22:45.756Z,30.00
2019-06-07T17:25:15.293Z,30.00
2019-06-07T17:27:44.133Z,29.90
2019-06-07T17:30:14.205Z,29.80
2019-06-07T17:32:50.801Z,29.80
2019-06-07T17:35:14.477Z,29.70
2019-06-07T17:37:44.339Z,29.70
2019-06-07T17:40:14.010Z,29.60
2019-06-07T17:42:42.841Z,29.50
2019-06-07T17:45:12.192Z,29.50
2019-06-07T17:47:41.941Z,29.40
2019-06-07T17:50:11.044Z,29.30
2019-06-07T17:52:39.805Z,29.20
2019-06-07T17:55:09.067Z,29.20
2019-06-07T17:57:38.203Z,29.10
2019-06-07T18:00:27.725Z,29.00
2019-06-07T18:02:42.638Z,28.90
2019-06-07T18:05:11.746Z,28.90
2019-06-07T18:07:40.675Z,28.80
2019-06-07T18:10:10.804Z,28.70
2019-06-07T18:12:39.542Z,28.60
2019-06-07T18:15:10.375Z,28.60
2019-06-07T18:17:39.143Z,28.50
2019-06-07T18:20:08.872Z,28.40
2019-06-07T18:22:37.713Z,28.40
2019-06-07T18:25:07.162Z,28.30
2019-06-07T18:27:35.918Z,28.20
2019-06-07T18:30:11.677Z,28.20
2019-06-07T18:32:37.758Z,28.10
2019-06-07T18:35:06.720Z,28.00
2019-06-07T18:37:35.463Z,28.00
2019-06-07T18:40:07.206Z,27.90
2019-06-07T18:42:36.012Z,27.80
2019-06-07T18:45:10.064Z,27.80
2019-06-07T18:47:38.845Z,27.70
2019-06-07T18:50:09.152Z,27.70
2019-06-07T18:52:39.529Z,27.60
2019-06-07T18:55:09.584Z,27.60
2019-06-07T18:57:38.336Z,27.50
2019-06-07T19:00:12.857Z,27.40
2019-06-07T19:02:41.618Z,27.40
2019-06-07T19:05:11.945Z,27.30
2019-06-07T19:07:40.713Z,27.20
2019-06-07T19:10:11.536Z,27.20
2019-06-07T19:12:40.393Z,27.20
2019-06-07T19:15:10.916Z,27.10
2019-06-07T19:17:39.867Z,27.10
2019-06-07T19:20:08.706Z,27.00
2019-06-07T19:22:37.481Z,26.90
2019-06-07T19:25:07.337Z,26.90
2019-06-07T19:27:36.160Z,26.90
2019-06-07T19:30:06.587Z,26.80
2019-06-07T19:32:35.349Z,26.80
2019-06-07T19:35:04.827Z,26.70
2019-06-07T19:37:33.566Z,26.70
2019-06-07T19:40:02.829Z,26.60
2019-06-07T19:42:31.697Z,26.60
2019-06-07T19:45:24.783Z,26.50
2019-06-07T19:47:31.019Z,26.50
2019-06-07T19:50:00.927Z,26.50
2019-06-07T19:52:30.716Z,26.40
2019-06-07T19:55:00.193Z,26.40
2019-06-07T19:57:29.208Z,26.40
2019-06-07T19:59:58.054Z,26.30
2019-06-07T20:02:26.941Z,26.30
2019-06-07T20:04:59.467Z,26.20
2019-06-07T20:07:26.125Z,26.20
2019-06-07T20:09:54.887Z,26.20
2019-06-07T20:12:23.638Z,26.10
2019-06-07T20:14:55.290Z,26.10
2019-06-07T20:17:22.849Z,26.00
2019-06-07T20:19:51.680Z,26.10
2019-06-07T20:22:20.521Z,26.00
2019-06-07T20:24:49.235Z,26.00
2019-06-07T20:27:17.985Z,26.00
2019-06-07T20:29:46.773Z,26.00
2019-06-07T20:32:15.581Z,26.00
2019-06-07T20:34:44.907Z,26.00
2019-06-07T20:37:13.759Z,25.90
2019-06-07T20:39:42.539Z,25.80
2019-06-07T20:42:11.325Z,25.80
2019-06-07T20:44:40.109Z,25.80
2019-06-07T20:47:08.852Z,25.80
2019-06-07T20:49:37.604Z,25.80
2019-06-07T20:52:06.735Z,25.70
2019-06-07T20:54:35.860Z,25.60
2019-06-07T20:57:04.820Z,25.70
2019-06-07T20:59:33.552Z,25.60
2019-06-07T21:02:02.987Z,25.60
2019-06-07T21:04:31.766Z,25.60
2019-06-07T21:07:01.348Z,25.60
2019-06-07T21:09:30.215Z,25.50
2019-06-07T21:11:59.839Z,25.50
2019-06-07T21:14:28.706Z,25.50
2019-06-07T21:16:57.540Z,25.40
2019-06-07T21:19:26.315Z,25.40
2019-06-07T21:21:55.073Z,25.40
2019-06-07T21:24:23.860Z,25.40
2019-06-07T21:26:53.505Z,25.30
2019-06-07T21:29:22.412Z,25.30
2019-06-07T21:31:51.179Z,25.30
2019-06-07T21:34:19.924Z,25.30
2019-06-07T21:36:48.777Z,25.30
2019-06-07T21:39:17.553Z,25.20
2019-06-07T21:41:46.462Z,25.20
2019-06-07T21:44:15.224Z,25.20
2019-06-07T21:46:43.996Z,25.20
2019-06-07T21:49:12.888Z,25.20
2019-06-07T21:51:41.752Z,25.20
2019-06-07T21:54:13.076Z,25.20
2019-06-07T21:56:41.780Z,25.20
2019-06-07T21:59:11.217Z,25.20
2019-06-07T22:01:40.057Z,25.20
2019-06-07T22:04:09.646Z,25.20
2019-06-07T22:06:38.475Z,25.20
2019-06-07T22:09:08.129Z,25.20
2019-06-07T22:11:36.849Z,25.10
2019-06-07T22:14:06.234Z,25.10
2019-06-07T22:16:35.202Z,25.00
2019-06-07T22:19:04.516Z,25.00
2019-06-07T22:21:33.349Z,25.00
2019-06-07T22:24:02.103Z,25.00
2019-06-07T22:26:30.853Z,24.90
2019-06-07T22:28:59.611Z,24.90
2019-06-07T22:31:30.955Z,24.90
2019-06-07T22:33:58.846Z,24.90
2019-06-07T22:36:27.590Z,24.90
2019-06-07T22:38:56.434Z,24.80
2019-06-07T22:41:25.185Z,24.90
2019-06-07T22:43:54.001Z,24.90
2019-06-07T22:46:36.439Z,24.80
2019-06-07T22:48:53.270Z,24.80
2019-06-07T22:51:22.040Z,24.80
2019-06-07T22:53:50.765Z,24.80
2019-06-07T22:56:21.157Z,24.80
2019-06-07T22:58:50.895Z,24.70
2019-06-07T23:01:20.297Z,24.70
2019-06-07T23:03:49.135Z,24.70
2019-06-07T23:06:18.946Z,24.60
2019-06-07T23:08:47.766Z,24.50
2019-06-07T23:11:17.333Z,24.50
2019-06-07T23:13:46.180Z,24.50
2019-06-07T23:16:15.781Z,24.50
2019-06-07T23:18:44.578Z,24.50
2019-06-07T23:21:13.820Z,24.50
2019-06-07T23:23:42.573Z,24.50
2019-06-07T23:26:12.208Z,24.40
2019-06-07T23:28:43.738Z,24.40
2019-06-07T23:31:12.521Z,24.40
2019-06-07T23:33:41.325Z,24.30
2019-06-07T23:36:11.001Z,24.30
2019-06-07T23:38:40.467Z,24.30
2019-06-07T23:41:11.304Z,24.20
2019-06-07T23:43:40.161Z,24.20
2019-06-07T23:46:08.997Z,24.20
2019-06-07T23:48:37.853Z,24.20
2019-06-07T23:51:06.818Z,24.20
2019-06-07T23:53:35.619Z,24.10
2019-06-07T23:56:04.371Z,24.10
2019-06-07T23:58:33.115Z,24.10
